Time;durP1;ratioP1;P1;durP2;ratioP2;P2;SDS_P1;SDS_P2;PMS_P1;PMS_P2;Temp;Humidity;BMP_temperature;BMP_pressure;BME280_temperature;BME280_humidity;BME280_pressure;Samples;Min_cycle;Max_cycle;Signal;HPM_P1;HPM_P2
2022/02/12 00:00:07;;;;;;;1.20;1.10;;;1.20;98.00;;;;;;5111310;28;20451;-64
2022/02/12 00:02:35;;;;;;;1.73;1.50;;;1.20;98.00;;;;;;5111233;28;20868;-65
2022/02/12 00:05:02;;;;;;;2.03;1.30;;;1.20;98.00;;;;;;5111415;28;20516;-64
2022/02/12 00:07:31;;;;;;;1.20;1.13;;;1.30;98.00;;;;;;5111108;28;20960;-63
2022/02/12 00:09:58;;;;;;;1.73;1.40;;;1.40;98.00;;;;;;5111318;28;20830;-63
2022/02/12 00:12:25;;;;;;;3.10;1.90;;;1.20;98.00;;;;;;5111222;28;20458;-63
2022/02/12 00:14:52;;;;;;;3.43;3.27;;;1.10;98.00;;;;;;5111346;28;20453;-63
2022/02/12 00:17:20;;;;;;;1.10;1.00;;;1.10;98.00;;;;;;5111036;28;20462;-63
2022/02/12 00:19:48;;;;;;;3.77;2.53;;;0.90;98.00;;;;;;5111104;28;20492;-64
2022/02/12 00:22:15;;;;;;;1.93;1.90;;;0.70;98.00;;;;;;5093174;28;20526;-64
2022/02/12 00:24:42;;;;;;;2.47;1.70;;;0.50;98.00;;;;;;5111054;28;20538;-63
2022/02/12 00:27:09;;;;;;;1.63;1.43;;;0.60;98.00;;;;;;5111278;28;20458;-63
2022/02/12 00:29:36;;;;;;;1.40;1.40;;;0.90;98.00;;;;;;5111228;28;20949;-64
2022/02/12 00:32:03;;;;;;;2.07;1.70;;;0.90;98.00;;;;;;5111026;28;20493;-63
2022/02/12 00:34:32;;;;;;;2.33;2.20;;;1.00;98.00;;;;;;5111269;28;20460;-64
2022/02/12 00:36:59;;;;;;;1.83;1.37;;;1.00;98.00;;;;;;5110931;28;20466;-64
2022/02/12 00:39:29;;;;;;;1.47;1.30;;;1.00;98.00;;;;;;5112267;28;20486;-64
2022/02/12 00:41:56;;;;;;;1.20;1.10;;;1.10;98.00;;;;;;5096478;28;20496;-64
2022/02/12 00:44:23;;;;;;;1.10;1.10;;;1.10;98.00;;;;;;5114856;28;20511;-64
2022/02/12 00:46:51;;;;;;;2.17;1.60;;;1.00;98.00;;;;;;5114742;28;20457;-63
2022/02/12 00:49:18;;;;;;;2.37;1.63;;;1.00;98.00;;;;;;5114991;28;20457;-64
2022/02/12 00:51:46;;;;;;;1.33;1.20;;;1.00;98.00;;;;;;5114610;28;21023;-63
2022/02/12 00:54:13;;;;;;;1.80;1.60;;;1.00;98.00;;;;;;5114792;28;20865;-64
2022/02/12 00:56:40;;;;;;;1.77;1.67;;;1.00;98.00;;;;;;5114430;28;20522;-64
2022/02/12 00:59:07;;;;;;;1.30;1.30;;;1.00;98.00;;;;;;5114508;28;20450;-64
2022/02/12 01:01:34;;;;;;;2.37;1.60;;;0.90;98.00;;;;;;5114575;28;20547;-65
2022/02/12 01:04:02;;;;;;;1.87;1.77;;;0.80;98.00;;;;;;5114467;28;21100;-65
2022/02/12 01:06:29;;;;;;;1.57;1.47;;;0.80;98.00;;;;;;5114365;28;20498;-64
2022/02/12 01:08:57;;;;;;;1.10;1.00;;;0.90;98.00;;;;;;5114424;28;20504;-64
2022/02/12 01:11:29;;;;;;;1.67;1.23;;;0.80;98.00;;;;;;5114313;28;20489;-64
2022/02/12 01:13:56;;;;;;;1.10;0.90;;;0.90;98.00;;;;;;5096747;28;20519;-63
2022/02/12 01:16:23;;;;;;;1.10;1.00;;;0.90;98.00;;;;;;5114070;28;20488;-63
2022/02/12 01:18:50;;;;;;;2.00;1.90;;;1.00;98.00;;;;;;5114260;28;20545;-63
2022/02/12 01:21:19;;;;;;;2.23;1.77;;;0.90;98.00;;;;;;5114096;28;20485;-64
2022/02/12 01:23:46;;;;;;;1.10;1.00;;;0.80;98.00;;;;;;5114094;28;20485;-64
2022/02/12 01:26:15;;;;;;;2.43;1.40;;;0.90;98.00;;;;;;5114078;28;20489;-63
2022/02/12 01:28:42;;;;;;;1.20;1.10;;;0.80;98.00;;;;;;5113759;28;20486;-63
2022/02/12 01:31:09;;;;;;;1.77;1.37;;;0.70;98.00;;;;;;5113827;28;20505;-63
2022/02/12 01:33:36;;;;;;;1.87;1.50;;;0.70;98.00;;;;;;5113920;28;20506;-63
2022/02/12 01:36:04;;;;;;;1.63;1.63;;;0.60;98.00;;;;;;5113889;28;20458;-64
2022/02/12 01:38:33;;;;;;;1.57;1.40;;;0.60;98.00;;;;;;5113808;28;20535;-63
2022/02/12 01:41:01;;;;;;;5.00;2.83;;;0.70;98.00;;;;;;5113322;28;20498;-63
2022/02/12 01:43:32;;;;;;;1.47;1.47;;;0.60;98.00;;;;;;5113643;28;20557;-64
2022/02/12 01:45:59;;;;;;;1.20;1.20;;;0.70;98.00;;;;;;5095995;28;20458;-63
2022/02/12 01:48:27;;;;;;;4.60;2.80;;;0.60;98.00;;;;;;5113752;28;20526;-63
2022/02/12 01:50:55;;;;;;;1.10;1.00;;;0.40;98.00;;;;;;5112990;28;20457;-64
2022/02/12 01:53:25;;;;;;;2.37;1.83;;;0.20;98.00;;;;;;5113680;28;20456;-64
2022/02/12 01:55:52;;;;;;;6.30;3.50;;;0.10;98.00;;;;;;5113615;28;20528;-63
2022/02/12 01:58:19;;;;;;;1.10;1.10;;;0.00;98.00;;;;;;5095396;28;20489;-63
2022/02/12 02:00:47;;;;;;;2.23;2.03;;;0.20;98.00;;;;;;5113401;28;20461;-63
2022/02/12 02:03:14;;;;;;;5.53;4.23;;;0.40;98.00;;;;;;5113262;28;20458;-63
2022/02/12 02:05:41;;;;;;;2.07;1.93;;;0.50;98.00;;;;;;5113342;28;20912;-63
2022/02/12 02:08:08;;;;;;;1.40;1.30;;;0.40;98.00;;;;;;5113258;28;20823;-63
2022/02/12 02:10:36;;;;;;;1.40;1.40;;;0.30;98.00;;;;;;5113255;28;20454;-63
2022/02/12 02:13:03;;;;;;;1.10;1.00;;;0.20;98.00;;;;;;5113322;28;20501;-63
2022/02/12 02:15:30;;;;;;;1.47;1.43;;;0.20;98.00;;;;;;5112976;28;20536;-64
2022/02/12 02:17:58;;;;;;;1.10;1.00;;;0.20;98.00;;;;;;5113017;28;20526;-64
2022/02/12 02:20:25;;;;;;;1.97;1.87;;;0.20;98.00;;;;;;5112924;28;21008;-62
2022/02/12 02:22:56;;;;;;;4.45;1.58;;;0.00;98.00;;;;;;5113058;28;20456;-63
2022/02/12 02:25:25;;;;;;;3.20;2.90;;;0.00;98.00;;;;;;5112735;28;20264;-63
2022/02/12 02:27:53;;;;;;;2.20;2.00;;;-0.10;98.00;;;;;;5112688;28;20608;-63
2022/02/12 02:30:22;;;;;;;1.10;1.10;;;0.00;98.00;;;;;;5094529;28;21018;-63
2022/02/12 02:32:50;;;;;;;1.80;1.70;;;0.20;98.00;;;;;;5112823;28;20988;-63
2022/02/12 02:35:19;;;;;;;1.20;1.20;;;0.20;98.00;;;;;;5112805;28;20893;-63
2022/02/12 02:37:47;;;;;;;3.90;1.63;;;0.10;98.00;;;;;;5112516;28;20489;-63
2022/02/12 02:40:17;;;;;;;3.30;1.53;;;0.10;98.00;;;;;;5112848;28;20577;-64
2022/02/12 02:42:46;;;;;;;1.97;1.63;;;0.10;98.00;;;;;;5112442;28;20449;-63
2022/02/12 02:45:14;;;;;;;1.10;1.03;;;0.10;98.00;;;;;;5112593;28;21006;-63
2022/02/12 02:47:42;;;;;;;1.80;1.73;;;0.10;98.00;;;;;;5112396;28;21196;-64
2022/02/12 02:56:01;;;;;;;1.80;1.50;;;0.50;98.00;;;;;;5112417;28;20444;-62
2022/02/12 02:58:32;;;;;;;1.53;1.37;;;0.50;98.00;;;;;;5112259;28;20453;-63
2022/02/12 03:01:00;;;;;;;2.10;1.93;;;0.30;98.00;;;;;;5112204;28;21133;-63
2022/02/12 03:03:27;;;;;;;1.20;1.20;;;0.20;98.00;;;;;;5112113;28;20492;-64
2022/02/12 03:05:54;;;;;;;1.57;1.47;;;0.10;98.00;;;;;;5112061;28;20456;-63
2022/02/12 03:08:21;;;;;;;3.37;2.10;;;0.10;98.00;;;;;;5112091;28;20505;-64
2022/02/12 03:10:50;;;;;;;3.27;1.93;;;0.00;98.00;;;;;;5112319;28;20496;-63
2022/02/12 03:13:17;;;;;;;1.43;1.30;;;0.20;98.00;;;;;;5112615;28;20578;-63
2022/02/12 03:15:44;;;;;;;4.90;2.60;;;0.10;98.00;;;;;;5112377;28;20516;-64
2022/02/12 03:18:11;;;;;;;2.80;2.60;;;-0.30;98.00;;;;;;5112550;28;20460;-64
2022/02/12 03:20:38;;;;;;;2.33;1.93;;;-0.30;98.00;;;;;;5113313;28;20503;-64
2022/02/12 03:23:06;;;;;;;1.37;1.30;;;-0.30;98.00;;;;;;5112928;28;20454;-63
2022/02/12 03:25:36;;;;;;;1.10;1.00;;;-0.30;98.00;;;;;;5112370;28;20484;-63
2022/02/12 03:28:05;;;;;;;2.50;1.60;;;-0.40;98.00;;;;;;5111765;28;20483;-63
2022/02/12 03:30:34;;;;;;;1.20;1.17;;;-0.60;98.00;;;;;;5111833;28;20991;-63
2022/02/12 03:33:02;;;;;;;1.80;1.70;;;-0.80;98.00;;;;;;5111695;28;20750;-63
2022/02/12 03:35:29;;;;;;;2.78;2.03;;;-0.90;98.00;;;;;;5111757;28;20544;-63
2022/02/12 03:38:07;;;;;;;1.83;1.80;;;-1.00;98.00;;;;;;5111591;28;20244;-64
2022/02/12 03:40:34;;;;;;;1.20;1.10;;;-0.90;98.00;;;;;;5111461;28;20491;-64
2022/02/12 03:43:01;;;;;;;1.20;1.10;;;-1.00;98.00;;;;;;5111679;28;20486;-63
2022/02/12 03:45:29;;;;;;;1.20;1.13;;;-0.90;98.00;;;;;;5111424;28;20515;-63
2022/02/12 03:47:56;;;;;;;1.20;1.17;;;-0.90;98.00;;;;;;5111380;28;20294;-63
2022/02/12 03:50:27;;;;;;;1.93;1.57;;;-0.80;98.00;;;;;;5111529;28;20648;-62
2022/02/12 03:52:54;;;;;;;1.57;1.33;;;-0.70;98.00;;;;;;5111336;28;20454;-62
2022/02/12 03:55:21;;;;;;;1.20;1.15;;;-0.80;98.00;;;;;;5093017;28;20543;-64
2022/02/12 03:57:49;;;;;;;5.45;1.75;;;-0.70;98.00;;;;;;5111442;28;20571;-63
2022/02/12 04:00:17;;;;;;;1.57;1.30;;;-0.80;98.00;;;;;;5111537;28;20244;-63
2022/02/12 04:02:46;;;;;;;1.77;1.38;;;-0.90;98.00;;;;;;5111413;28;20452;-64
2022/02/12 04:05:15;;;;;;;1.60;1.50;;;-0.90;98.00;;;;;;5111331;28;20227;-64
2022/02/12 04:07:43;;;;;;;1.10;1.00;;;-0.90;98.00;;;;;;5111113;28;20249;-63
2022/02/12 04:10:12;;;;;;;2.63;1.30;;;-0.90;98.00;;;;;;5111328;28;20204;-63
2022/02/12 04:12:39;;;;;;;1.87;1.37;;;-0.80;98.00;;;;;;5111378;28;20488;-63
2022/02/12 04:15:09;;;;;;;1.37;1.33;;;-0.90;98.00;;;;;;5113799;28;20455;-64
2022/02/12 04:17:37;;;;;;;1.15;1.10;;;-0.90;98.00;;;;;;5115362;28;20513;-63
2022/02/12 04:20:08;;;;;;;1.50;1.27;;;-0.90;98.00;;;;;;5115356;28;20242;-63
2022/02/12 04:22:36;;;;;;;5.45;3.20;;;-0.80;98.00;;;;;;5096852;28;20482;-64
2022/02/12 04:25:06;;;;;;;1.67;1.33;;;-0.80;98.00;;;;;;5115370;28;20722;-63
2022/02/12 04:27:33;;;;;;;1.60;1.53;;;-0.90;98.00;;;;;;5096748;28;20495;-64
2022/02/12 04:30:01;;;;;;;1.20;1.10;;;-0.90;98.00;;;;;;5115261;28;20503;-64
2022/02/12 04:32:28;;;;;;;1.20;1.13;;;-0.70;98.00;;;;;;5115164;28;20485;-62
2022/02/12 04:34:55;;;;;;;1.10;1.00;;;-0.80;98.00;;;;;;5115332;28;20568;-64
2022/02/12 04:37:24;;;;;;;1.70;1.65;;;-0.80;98.00;;;;;;5114974;28;20482;-63
2022/02/12 04:39:52;;;;;;;1.60;1.27;;;-0.90;98.00;;;;;;5115064;28;20249;-63
2022/02/12 04:42:20;;;;;;;1.10;0.98;;;-1.00;98.00;;;;;;5115328;28;20451;-63
2022/02/12 04:44:49;;;;;;;1.27;1.23;;;-0.80;98.00;;;;;;5115162;28;20268;-63
2022/02/12 04:47:17;;;;;;;1.10;1.10;;;-0.60;98.00;;;;;;5114780;28;20488;-64
2022/02/12 04:49:46;;;;;;;1.40;1.30;;;-0.50;98.00;;;;;;5114764;28;20505;-63
2022/02/12 04:52:15;;;;;;;1.10;0.90;;;-0.40;98.00;;;;;;5114885;28;20671;-63
2022/02/12 04:54:44;;;;;;;1.50;1.42;;;-0.50;98.00;;;;;;5114619;28;20208;-63
2022/02/12 04:57:12;;;;;;;6.10;2.38;;;-0.60;98.00;;;;;;5114707;28;20323;-63
2022/02/12 04:59:39;;;;;;;1.20;1.20;;;-0.60;98.00;;;;;;5114418;28;20232;-63
2022/02/12 05:02:06;;;;;;;1.40;1.30;;;-0.70;98.00;;;;;;5114558;28;20456;-63
2022/02/12 05:04:34;;;;;;;1.30;1.10;;;-0.70;98.00;;;;;;5114328;28;20515;-63
2022/02/12 05:07:01;;;;;;;2.00;1.85;;;-0.80;98.00;;;;;;5114462;28;20548;-63
2022/02/12 05:09:31;;;;;;;1.48;1.23;;;-0.90;98.00;;;;;;5114562;28;20703;-63
2022/02/12 05:11:59;;;;;;;1.17;1.10;;;-0.90;98.00;;;;;;5114362;28;20201;-63
2022/02/12 05:14:31;;;;;;;2.27;1.50;;;-0.90;98.00;;;;;;5114212;28;20455;-64
2022/02/12 05:16:58;;;;;;;1.42;1.38;;;-1.10;98.00;;;;;;5114282;28;20458;-64
2022/02/12 05:19:25;;;;;;;1.30;1.30;;;-1.30;98.00;;;;;;5114178;28;20237;-63
2022/02/12 05:21:52;;;;;;;1.20;1.13;;;-1.30;98.00;;;;;;5114268;28;20238;-63
2022/02/12 05:24:19;;;;;;;1.20;1.20;;;-1.50;98.00;;;;;;5114049;28;20304;-63
2022/02/12 05:26:46;;;;;;;1.40;1.30;;;-1.50;98.00;;;;;;5112946;28;20199;-64
2022/02/12 05:29:15;;;;;;;1.15;1.00;;;-1.50;98.00;;;;;;5113955;28;20203;-64
2022/02/12 05:31:42;;;;;;;1.10;1.05;;;-1.60;98.00;;;;;;5113867;28;20692;-63
2022/02/12 05:34:09;;;;;;;1.40;1.30;;;-1.40;98.00;;;;;;5095844;28;20198;-63
2022/02/12 05:36:36;;;;;;;1.50;1.40;;;-1.50;98.00;;;;;;5113752;28;20197;-65
2022/02/12 05:39:05;;;;;;;1.52;1.40;;;-1.40;98.00;;;;;;5113894;28;20205;-64
2022/02/12 05:41:32;;;;;;;1.70;1.50;;;-1.20;98.00;;;;;;5113792;28;20206;-64
2022/02/12 05:43:59;;;;;;;1.30;1.27;;;-1.00;98.00;;;;;;5095908;28;20490;-63
2022/02/12 05:46:28;;;;;;;1.20;1.10;;;-1.10;98.00;;;;;;5113660;28;20286;-63
2022/02/12 05:48:55;;;;;;;1.40;1.30;;;-1.00;98.00;;;;;;5113714;28;20638;-63
2022/02/12 05:51:22;;;;;;;1.10;1.00;;;-0.80;98.00;;;;;;5113428;28;20263;-63
2022/02/12 05:53:49;;;;;;;1.10;1.00;;;-0.70;98.00;;;;;;5113589;28;20223;-63
2022/02/12 05:56:17;;;;;;;2.63;1.65;;;-0.80;98.00;;;;;;5113571;28;20247;-63
2022/02/12 05:58:44;;;;;;;1.77;1.60;;;-1.00;98.00;;;;;;5113689;28;20237;-66
2022/02/12 06:01:12;;;;;;;1.65;1.42;;;-0.90;98.00;;;;;;5113417;28;20455;-65
2022/02/12 06:03:40;;;;;;;3.47;2.85;;;-0.90;98.00;;;;;;5095307;28;20562;-65
2022/02/12 06:06:07;;;;;;;1.10;1.10;;;-0.90;98.00;;;;;;5113567;28;20218;-64
2022/02/12 06:08:34;;;;;;;1.85;1.80;;;-0.80;98.00;;;;;;5112894;28;20237;-63
2022/02/12 06:11:04;;;;;;;1.50;1.40;;;-1.00;98.00;;;;;;5113309;28;20292;-63
2022/02/12 06:13:31;;;;;;;1.10;1.00;;;-0.90;98.00;;;;;;5113211;28;20463;-64
2022/02/12 06:15:58;;;;;;;2.05;1.95;;;-0.80;98.00;;;;;;5113402;28;20477;-64
2022/02/12 06:18:25;;;;;;;3.25;1.30;;;-0.70;98.00;;;;;;5112857;28;20199;-62
2022/02/12 06:20:56;;;;;;;1.20;1.10;;;-0.80;98.00;;;;;;5113045;28;20215;-64
2022/02/12 06:23:24;;;;;;;1.43;1.37;;;-0.80;98.00;;;;;;5112913;28;20997;-63
2022/02/12 06:25:51;;;;;;;1.27;1.23;;;-1.00;98.00;;;;;;5112963;28;20582;-63
2022/02/12 06:28:18;;;;;;;1.80;1.70;;;-1.00;98.00;;;;;;5112617;28;20373;-64
2022/02/12 06:30:45;;;;;;;1.10;1.00;;;-1.00;98.00;;;;;;5112610;28;20198;-63
2022/02/12 06:33:12;;;;;;;3.70;1.90;;;-1.10;98.00;;;;;;5112625;28;20580;-63
2022/02/12 06:35:39;;;;;;;1.73;1.50;;;-1.20;98.00;;;;;;5112791;28;20290;-63
2022/02/12 06:38:10;;;;;;;1.67;1.63;;;-1.10;98.00;;;;;;5112375;28;20209;-63
2022/02/12 06:40:37;;;;;;;1.13;1.00;;;-1.10;98.00;;;;;;5112571;28;20867;-64
2022/02/12 06:43:04;;;;;;;1.33;1.30;;;-1.10;98.00;;;;;;5112391;28;20279;-63
2022/02/12 06:45:32;;;;;;;1.20;1.20;;;-1.10;98.00;;;;;;5112355;28;20228;-63
2022/02/12 06:47:59;;;;;;;1.20;1.17;;;-1.10;98.00;;;;;;5112335;28;20542;-63
2022/02/12 06:50:27;;;;;;;1.10;0.90;;;-1.20;98.00;;;;;;5112365;28;20458;-64
2022/02/12 06:52:54;;;;;;;1.30;1.23;;;-1.30;98.00;;;;;;5112305;28;20258;-63
2022/02/12 06:55:22;;;;;;;1.10;1.08;;;-1.20;98.00;;;;;;5094164;28;20459;-63
2022/02/12 06:57:50;;;;;;;2.15;1.98;;;-1.30;98.00;;;;;;5094101;28;20206;-64
2022/02/12 07:00:19;;;;;;;1.17;1.00;;;-1.30;98.00;;;;;;5112271;28;20256;-64
2022/02/12 07:02:46;;;;;;;1.73;1.63;;;-1.40;98.00;;;;;;5111497;28;20538;-63
2022/02/12 07:05:14;;;;;;;1.10;1.10;;;-1.50;98.00;;;;;;5112035;28;20483;-64
2022/02/12 07:07:45;;;;;;;1.20;1.10;;;-1.60;98.00;;;;;;5112037;28;20205;-63
2022/02/12 07:10:12;;;;;;;1.60;1.50;;;-1.60;98.00;;;;;;5111920;28;20209;-63
2022/02/12 07:12:41;;;;;;;2.55;2.25;;;-1.60;98.00;;;;;;5112233;28;20198;-64
2022/02/12 07:15:09;;;;;;;1.83;1.13;;;-1.60;98.00;;;;;;5111894;28;20263;-63
2022/02/12 07:17:39;;;;;;;1.10;1.00;;;-1.60;98.00;;;;;;5111935;28;20197;-63
2022/02/12 07:20:08;;;;;;;1.20;1.13;;;-1.60;98.00;;;;;;5111991;28;20292;-63
2022/02/12 07:22:35;;;;;;;2.55;1.65;;;-1.60;98.00;;;;;;5112093;28;20264;-63
2022/02/12 07:25:02;;;;;;;1.13;1.08;;;-1.50;98.00;;;;;;5111446;28;20296;-64
2022/02/12 07:27:30;;;;;;;4.50;1.92;;;-1.40;98.00;;;;;;5111998;28;20209;-63
2022/02/12 07:29:59;;;;;;;1.67;1.45;;;-1.20;98.00;;;;;;5111844;28;20573;-63
2022/02/12 07:32:26;;;;;;;3.63;1.77;;;-1.20;98.00;;;;;;5111796;28;20249;-63
2022/02/12 07:34:53;;;;;;;3.85;2.60;;;-1.20;98.00;;;;;;5093672;28;20206;-63
2022/02/12 07:37:20;;;;;;;2.03;1.90;;;-1.30;98.00;;;;;;5111617;28;20728;-62
2022/02/12 07:39:47;;;;;;;5.40;1.20;;;-1.40;98.00;;;;;;5111651;28;20206;-62
2022/02/12 07:42:14;;;;;;;1.47;1.20;;;-1.20;98.00;;;;;;5111477;28;20249;-63
2022/02/12 07:44:41;;;;;;;1.20;1.20;;;-1.10;98.00;;;;;;5111226;28;20502;-62
2022/02/12 07:47:10;;;;;;;1.10;1.03;;;-1.10;98.00;;;;;;5111184;28;20257;-63
2022/02/12 07:49:37;;;;;;;2.95;2.80;;;-1.10;98.00;;;;;;5110845;28;21022;-64
2022/02/12 07:52:04;;;;;;;1.50;1.43;;;-1.10;98.00;;;;;;5111484;28;20579;-64
2022/02/12 07:54:31;;;;;;;1.50;1.40;;;-1.10;98.00;;;;;;5111119;28;20455;-63
2022/02/12 07:56:59;;;;;;;1.10;1.00;;;-1.00;98.00;;;;;;5111321;28;20878;-63
2022/02/12 07:59:26;;;;;;;1.10;1.10;;;-1.10;98.00;;;;;;5111282;28;20452;-63
2022/02/12 08:01:53;;;;;;;2.67;1.83;;;-1.00;98.00;;;;;;5111424;28;20512;-63
2022/02/12 08:04:22;;;;;;;2.00;1.40;;;-1.00;98.00;;;;;;5111182;28;20594;-62
2022/02/12 08:09:33;;;;;;;2.67;1.70;;;-0.80;98.00;;;;;;5111496;28;20339;-63
2022/02/12 08:12:13;;;;;;;1.13;1.10;;;-0.80;98.00;;;;;;5111474;28;20229;-62
2022/02/12 08:14:45;;;;;;;2.17;2.00;;;-0.80;98.00;;;;;;5111341;28;20212;-65
2022/02/12 08:17:15;;;;;;;1.52;1.50;;;-0.70;98.00;;;;;;5110904;28;20209;-62
2022/02/12 08:19:50;;;;;;;3.33;2.10;;;-0.70;98.00;;;;;;5112463;28;20284;-63
2022/02/12 08:22:18;;;;;;;1.27;1.23;;;-0.60;98.00;;;;;;5111775;28;20453;-63
2022/02/12 08:24:46;;;;;;;1.10;1.00;;;-0.50;98.00;;;;;;5111954;28;20457;-62
2022/02/12 08:27:14;;;;;;;1.47;1.37;;;-0.50;98.00;;;;;;5111054;28;21013;-62
2022/02/12 08:29:43;;;;;;;1.47;1.40;;;-0.50;98.00;;;;;;5111060;28;20487;-62
2022/02/12 08:32:10;;;;;;;1.40;1.38;;;-0.50;98.00;;;;;;5111532;28;20489;-64
2022/02/12 08:34:37;;;;;;;1.30;1.27;;;-0.40;98.00;;;;;;5108629;28;20199;-64
2022/02/12 08:37:06;;;;;;;1.20;1.20;;;-0.10;98.00;;;;;;5103423;28;20492;-64
2022/02/12 08:39:33;;;;;;;2.67;2.07;;;0.00;98.00;;;;;;5108685;28;20468;-63
2022/02/12 08:42:00;;;;;;;1.53;1.43;;;0.10;98.00;;;;;;5108415;28;20870;-63
2022/02/12 08:44:27;;;;;;;3.60;2.43;;;0.10;98.00;;;;;;5108912;28;20497;-64
2022/02/12 08:46:55;;;;;;;3.00;2.33;;;0.20;98.00;;;;;;5108173;28;20582;-63
2022/02/12 08:49:23;;;;;;;6.43;1.63;;;0.20;98.00;;;;;;5107522;28;20945;-63
2022/02/12 08:51:51;;;;;;;1.80;1.70;;;0.40;98.00;;;;;;5106853;28;20450;-64
2022/02/12 08:54:20;;;;;;;4.10;3.07;;;0.60;98.00;;;;;;5108782;28;20449;-63
2022/02/12 08:56:47;;;;;;;3.93;2.70;;;0.70;98.00;;;;;;5090454;28;20562;-63
2022/02/12 08:59:15;;;;;;;1.80;1.73;;;0.90;98.00;;;;;;5090544;28;20873;-64
2022/02/12 09:01:42;;;;;;;1.20;1.10;;;0.90;98.00;;;;;;5111622;28;20513;-64
2022/02/12 09:04:11;;;;;;;3.67;2.60;;;0.70;98.00;;;;;;5111742;28;20481;-63
2022/02/12 09:06:39;;;;;;;5.37;2.70;;;0.80;98.00;;;;;;5111786;28;20524;-64
2022/02/12 09:09:09;;;;;;;1.77;1.60;;;0.80;98.00;;;;;;5111894;28;20530;-63
2022/02/12 09:11:39;;;;;;;1.20;1.20;;;0.90;98.00;;;;;;5111696;28;20458;-62
2022/02/12 09:14:07;;;;;;;1.60;1.40;;;1.10;98.00;;;;;;5111569;28;20533;-63
2022/02/12 09:16:35;;;;;;;1.30;1.20;;;1.10;98.00;;;;;;5111715;28;20488;-63
2022/02/12 09:19:02;;;;;;;2.13;1.97;;;1.30;98.00;;;;;;5111983;28;20458;-64
2022/02/12 09:21:29;;;;;;;1.70;1.50;;;1.30;98.00;;;;;;5111697;28;20458;-64
2022/02/12 09:23:57;;;;;;;1.83;1.10;;;1.40;98.00;;;;;;5111456;28;20500;-63
2022/02/12 09:26:29;;;;;;;3.20;1.83;;;1.40;98.00;;;;;;5111475;28;20532;-64
2022/02/12 09:28:58;;;;;;;1.20;1.10;;;1.60;98.00;;;;;;5110959;28;20469;-63
2022/02/12 09:31:28;;;;;;;1.40;1.30;;;1.60;98.00;;;;;;5111327;28;20948;-64
2022/02/12 09:33:55;;;;;;;1.30;1.30;;;1.80;98.00;;;;;;5111079;28;20480;-66
2022/02/12 09:36:22;;;;;;;2.10;1.83;;;1.90;98.00;;;;;;5111154;28;20539;-65
2022/02/12 09:38:49;;;;;;;1.93;1.60;;;1.90;98.00;;;;;;5092965;28;20499;-64
2022/02/12 09:41:20;;;;;;;1.53;1.43;;;1.90;98.00;;;;;;5112388;28;20486;-64
2022/02/12 09:43:49;;;;;;;2.40;2.10;;;2.10;98.00;;;;;;5113620;28;20543;-65
2022/02/12 09:46:52;;;;;;;2.03;1.50;;;2.20;98.00;;;;;;5113755;28;20906;-65
2022/02/12 09:49:19;;;;;;;1.17;1.10;;;2.30;98.00;;;;;;5113761;28;20459;-65
2022/02/12 09:51:48;;;;;;;1.93;1.83;;;2.30;98.00;;;;;;5113444;28;20447;-64
2022/02/12 09:54:16;;;;;;;2.10;2.00;;;2.30;98.00;;;;;;5113385;28;20545;-65
2022/02/12 09:56:45;;;;;;;4.10;2.70;;;2.50;98.00;;;;;;5113427;28;20455;-65
2022/02/12 09:59:12;;;;;;;1.20;1.17;;;2.60;98.00;;;;;;5113362;28;20447;-65
2022/02/12 10:01:41;;;;;;;2.20;1.70;;;2.70;98.00;;;;;;5113639;28;20459;-64
2022/02/12 10:04:15;;;;;;;1.23;1.20;;;3.00;98.00;;;;;;5113484;28;20486;-65
2022/02/12 10:06:47;;;;;;;2.30;2.10;;;3.10;98.00;;;;;;5113291;28;20991;-65
2022/02/12 10:09:14;;;;;;;1.20;1.17;;;3.30;98.00;;;;;;5113406;28;20454;-66
2022/02/12 10:11:43;;;;;;;2.20;1.27;;;3.60;98.00;;;;;;5112688;28;20475;-65
2022/02/12 10:14:11;;;;;;;1.10;1.10;;;3.70;98.00;;;;;;5113321;28;20491;-65
2022/02/12 10:16:58;;;;;;;1.10;1.00;;;3.70;98.00;;;;;;5113317;28;20478;-65
2022/02/12 10:19:33;;;;;;;1.40;1.37;;;3.70;98.00;;;;;;5113542;28;20951;-65
2022/02/12 10:22:15;;;;;;;1.20;1.10;;;3.80;98.00;;;;;;5113390;28;20538;-65
2022/02/12 10:24:47;;;;;;;1.17;1.00;;;4.00;98.00;;;;;;5113161;28;20975;-65
2022/02/12 10:27:14;;;;;;;2.90;1.50;;;4.10;98.00;;;;;;5095179;28;21091;-64
2022/02/12 10:29:42;;;;;;;1.50;1.40;;;4.20;98.00;;;;;;5113026;28;20503;-64
2022/02/12 10:32:11;;;;;;;1.97;1.87;;;4.30;98.00;;;;;;5112952;28;20941;-65
2022/02/12 10:34:39;;;;;;;1.20;1.10;;;4.40;98.00;;;;;;5113107;28;20508;-65
2022/02/12 10:37:06;;;;;;;1.20;1.00;;;4.60;98.00;;;;;;5112778;28;20462;-65
2022/02/12 10:39:40;;;;;;;1.20;1.00;;;4.70;98.00;;;;;;5112762;28;20483;-65
2022/02/12 10:42:08;;;;;;;1.30;1.30;;;4.90;98.00;;;;;;5112611;28;20447;-65
2022/02/12 10:44:35;;;;;;;3.43;2.53;;;5.00;98.00;;;;;;5112688;28;20528;-65
2022/02/12 10:47:03;;;;;;;1.43;1.40;;;5.10;98.00;;;;;;5113013;28;21104;-65
2022/02/12 10:49:32;;;;;;;1.20;1.00;;;5.30;98.00;;;;;;5112921;28;20481;-65
2022/02/12 10:51:59;;;;;;;1.20;1.00;;;5.50;98.00;;;;;;5094519;28;20463;-65
2022/02/12 10:54:26;;;;;;;1.20;1.20;;;5.60;98.00;;;;;;5113143;28;20513;-66
2022/02/12 10:56:54;;;;;;;1.50;1.23;;;5.80;98.00;;;;;;5112876;28;21012;-65
2022/02/12 10:59:24;;;;;;;1.20;1.00;;;5.90;98.00;;;;;;5112765;28;20459;-66
2022/02/12 11:01:55;;;;;;;1.20;1.10;;;6.00;98.00;;;;;;5112937;28;20521;-66
2022/02/12 11:04:25;;;;;;;1.20;1.00;;;6.10;98.00;;;;;;5095210;28;20465;-66
2022/02/12 11:06:54;;;;;;;1.20;1.10;;;6.40;98.00;;;;;;5112874;28;20521;-66
2022/02/12 11:09:21;;;;;;;1.20;1.00;;;6.50;98.00;;;;;;5112760;28;20495;-66
2022/02/12 11:11:49;;;;;;;6.30;1.77;;;6.70;98.00;;;;;;5112102;28;20542;-65
2022/02/12 11:14:22;;;;;;;2.07;1.53;;;6.90;98.00;;;;;;5112812;28;20492;-66
2022/02/12 11:16:50;;;;;;;1.83;1.43;;;7.10;98.00;;;;;;5112723;28;20452;-65
2022/02/12 11:19:18;;;;;;;1.30;1.10;;;7.20;98.00;;;;;;5112610;28;20523;-65
2022/02/12 11:21:45;;;;;;;1.20;1.20;;;7.50;98.00;;;;;;5112854;28;20482;-65
2022/02/12 11:24:16;;;;;;;1.23;1.10;;;7.80;98.00;;;;;;5111855;28;20458;-65
2022/02/12 11:26:48;;;;;;;2.27;1.30;;;8.20;98.00;;;;;;5112481;28;20490;-65
2022/02/12 11:29:31;;;;;;;1.20;1.00;;;8.40;98.00;;;;;;5112699;28;20493;-65
2022/02/12 11:32:09;;;;;;;1.20;1.00;;;8.70;98.00;;;;;;5112752;28;20493;-65
2022/02/12 11:34:37;;;;;;;1.57;1.07;;;8.90;97.70;;;;;;5112733;28;20854;-65
2022/02/12 11:37:16;;;;;;;1.20;1.00;;;9.20;95.40;;;;;;5112456;28;20956;-65
2022/02/12 11:40:11;;;;;;;1.20;1.00;;;9.50;95.20;;;;;;5112490;28;20499;-65
2022/02/12 11:42:46;;;;;;;1.40;1.10;;;9.60;90.40;;;;;;5112294;28;20481;-64
2022/02/12 11:45:29;;;;;;;2.37;1.40;;;9.90;90.90;;;;;;5112539;28;20537;-64
2022/02/12 11:48:20;;;;;;;1.20;1.00;;;10.20;89.20;;;;;;5111808;28;20483;-65
2022/02/12 11:50:52;;;;;;;1.20;1.00;;;10.50;88.80;;;;;;5108545;28;20451;-65
2022/02/12 11:53:39;;;;;;;1.20;1.10;;;10.80;87.30;;;;;;5112109;28;20481;-65
2022/02/12 11:56:25;;;;;;;1.80;1.10;;;10.90;88.90;;;;;;5112013;28;20997;-64
2022/02/12 11:59:11;;;;;;;1.20;1.00;;;11.10;86.70;;;;;;5110666;28;21054;-65
2022/02/12 12:01:45;;;;;;;1.20;1.00;;;11.30;84.70;;;;;;5112184;28;20463;-66
2022/02/12 12:04:18;;;;;;;1.20;1.10;;;11.50;83.90;;;;;;5111951;28;20511;-66
2022/02/12 12:07:21;;;;;;;15.03;1.83;;;11.90;84.20;;;;;;5111915;28;20482;-65
2022/02/12 12:10:11;;;;;;;1.20;1.20;;;12.10;82.10;;;;;;5112147;28;20481;-65
2022/02/12 12:12:42;;;;;;;1.20;1.00;;;12.10;81.40;;;;;;5111851;28;20630;-65
2022/02/12 12:15:24;;;;;;;1.20;1.00;;;12.10;79.20;;;;;;5111997;28;20446;-64
2022/02/12 12:20:31;;;;;;;1.23;1.13;;;12.10;80.70;;;;;;5256278;22;20519;-63
2022/02/12 12:23:02;;;;;;;1.40;1.20;;;12.40;79.90;;;;;;5070647;28;20511;-63
2022/02/12 12:25:30;;;;;;;5.17;1.30;;;12.50;77.80;;;;;;5071558;28;20786;-63
2022/02/12 12:28:03;;;;;;;1.20;1.20;;;12.60;77.60;;;;;;5071273;28;20579;-64
2022/02/12 12:30:44;;;;;;;1.20;1.10;;;12.80;77.00;;;;;;5071214;28;20466;-64
2022/02/12 12:33:11;;;;;;;1.20;1.00;;;12.90;77.20;;;;;;5070365;28;20454;-63
2022/02/12 12:35:39;;;;;;;2.03;1.47;;;12.90;76.70;;;;;;5073194;28;20522;-63
2022/02/12 12:38:10;;;;;;;1.30;1.10;;;13.00;75.60;;;;;;5075242;28;20556;-64
2022/02/12 12:40:46;;;;;;;1.63;1.23;;;13.00;75.30;;;;;;5075390;28;20905;-63
2022/02/12 12:43:17;;;;;;;1.20;1.10;;;13.10;74.90;;;;;;5075056;28;20552;-63
2022/02/12 12:45:45;;;;;;;1.60;1.30;;;13.20;74.70;;;;;;5075314;28;20948;-64
2022/02/12 12:48:13;;;;;;;1.57;1.20;;;13.20;74.60;;;;;;5074897;28;20489;-63
2022/02/12 12:50:42;;;;;;;1.20;1.00;;;13.20;73.80;;;;;;5074540;28;20459;-64
2022/02/12 12:53:10;;;;;;;1.20;1.00;;;13.20;74.50;;;;;;5074901;28;20550;-63
2022/02/12 12:55:38;;;;;;;1.20;1.10;;;13.00;73.20;;;;;;5074970;28;20487;-64
2022/02/12 12:58:13;;;;;;;1.27;1.10;;;12.90;72.80;;;;;;5075077;28;20457;-64
2022/02/12 13:00:42;;;;;;;1.20;1.00;;;13.20;73.70;;;;;;5073750;28;20462;-64
2022/02/12 13:03:09;;;;;;;1.97;1.20;;;13.60;72.90;;;;;;5074558;28;20486;-64
2022/02/12 13:05:37;;;;;;;1.20;1.10;;;13.70;71.80;;;;;;5074965;28;20499;-63
2022/02/12 13:08:06;;;;;;;1.67;1.13;;;13.80;71.00;;;;;;5074124;28;20564;-64
2022/02/12 13:10:34;;;;;;;1.60;1.43;;;13.80;70.00;;;;;;5074084;28;20964;-64
2022/02/12 13:13:11;;;;;;;1.20;1.00;;;13.80;71.50;;;;;;5073952;28;20455;-64